sensor_id;sensor_type;location;lat;lon;timestamp;P1;durP1;ratioP1;P2;durP2;ratioP2
5077;SDS011;2557;51.390;7.494;2022-08-19T00:00:15;22.30;;;20.10;;
5077;SDS011;2557;51.390;7.494;2022-08-19T00:02:43;19.97;;;17.63;;
5077;SDS011;2557;51.390;7.494;2022-08-19T00:05:11;23.83;;;20.13;;
5077;SDS011;2557;51.390;7.494;2022-08-19T00:07:37;18.50;;;16.70;;
5077;SDS011;2557;51.390;7.494;2022-08-19T00:10:05;22.00;;;18.43;;
5077;SDS011;2557;51.390;7.494;2022-08-19T00:12:31;19.53;;;17.53;;
5077;SDS011;2557;51.390;7.494;2022-08-19T00:14:57;19.53;;;17.43;;
5077;SDS011;2557;51.390;7.494;2022-08-19T00:17:23;21.00;;;18.67;;
5077;SDS011;2557;51.390;7.494;2022-08-19T00:19:49;19.87;;;17.77;;
5077;SDS011;2557;51.390;7.494;2022-08-19T00:22:15;20.80;;;18.70;;
5077;SDS011;2557;51.390;7.494;2022-08-19T00:24:43;20.70;;;18.60;;
5077;SDS011;2557;51.390;7.494;2022-08-19T00:27:09;20.60;;;18.50;;
5077;SDS011;2557;51.390;7.494;2022-08-19T00:29:35;20.80;;;18.90;;
5077;SDS011;2557;51.390;7.494;2022-08-19T00:32:01;19.93;;;17.93;;
5077;SDS011;2557;51.390;7.494;2022-08-19T00:34:27;21.63;;;19.30;;
5077;SDS011;2557;51.390;7.494;2022-08-19T00:36:53;21.50;;;18.40;;
5077;SDS011;2557;51.390;7.494;2022-08-19T00:39:19;21.93;;;18.20;;
5077;SDS011;2557;51.390;7.494;2022-08-19T00:41:46;22.47;;;19.53;;
5077;SDS011;2557;51.390;7.494;2022-08-19T00:44:18;20.83;;;18.63;;
5077;SDS011;2557;51.390;7.494;2022-08-19T00:46:45;24.17;;;20.87;;
5077;SDS011;2557;51.390;7.494;2022-08-19T00:49:20;21.00;;;18.67;;
5077;SDS011;2557;51.390;7.494;2022-08-19T00:51:50;28.43;;;19.20;;
5077;SDS011;2557;51.390;7.494;2022-08-19T00:54:17;20.10;;;18.10;;
5077;SDS011;2557;51.390;7.494;2022-08-19T00:56:43;25.20;;;18.40;;
5077;SDS011;2557;51.390;7.494;2022-08-19T00:59:10;22.83;;;20.60;;
5077;SDS011;2557;51.390;7.494;2022-08-19T01:01:37;20.30;;;18.40;;
5077;SDS011;2557;51.390;7.494;2022-08-19T01:04:04;21.40;;;19.30;;
5077;SDS011;2557;51.390;7.494;2022-08-19T01:06:30;21.33;;;18.93;;
5077;SDS011;2557;51.390;7.494;2022-08-19T01:08:57;23.00;;;20.73;;
5077;SDS011;2557;51.390;7.494;2022-08-19T01:11:23;22.23;;;19.87;;
5077;SDS011;2557;51.390;7.494;2022-08-19T01:13:50;21.93;;;18.30;;
5077;SDS011;2557;51.390;7.494;2022-08-19T01:16:17;21.60;;;19.40;;
5077;SDS011;2557;51.390;7.494;2022-08-19T01:18:44;22.40;;;20.03;;
5077;SDS011;2557;51.390;7.494;2022-08-19T01:21:15;19.30;;;17.43;;
5077;SDS011;2557;51.390;7.494;2022-08-19T01:23:43;23.23;;;20.70;;
5077;SDS011;2557;51.390;7.494;2022-08-19T01:26:11;21.77;;;19.47;;
5077;SDS011;2557;51.390;7.494;2022-08-19T01:28:37;23.27;;;19.60;;
5077;SDS011;2557;51.390;7.494;2022-08-19T01:31:04;23.40;;;19.00;;
5077;SDS011;2557;51.390;7.494;2022-08-19T01:33:30;22.23;;;19.70;;
5077;SDS011;2557;51.390;7.494;2022-08-19T01:36:03;21.80;;;19.50;;
5077;SDS011;2557;51.390;7.494;2022-08-19T01:38:29;21.73;;;19.53;;
5077;SDS011;2557;51.390;7.494;2022-08-19T01:40:56;22.80;;;20.17;;
5077;SDS011;2557;51.390;7.494;2022-08-19T01:43:23;22.40;;;20.10;;
5077;SDS011;2557;51.390;7.494;2022-08-19T01:45:49;21.53;;;19.33;;
5077;SDS011;2557;51.390;7.494;2022-08-19T01:48:16;21.00;;;18.53;;
5077;SDS011;2557;51.390;7.494;2022-08-19T01:50:42;23.43;;;21.10;;
5077;SDS011;2557;51.390;7.494;2022-08-19T01:53:10;23.33;;;18.00;;
5077;SDS011;2557;51.390;7.494;2022-08-19T01:55:37;23.10;;;19.93;;
5077;SDS011;2557;51.390;7.494;2022-08-19T01:58:04;23.13;;;19.80;;
5077;SDS011;2557;51.390;7.494;2022-08-19T02:00:31;22.47;;;19.40;;
5077;SDS011;2557;51.390;7.494;2022-08-19T02:02:57;25.07;;;20.40;;
5077;SDS011;2557;51.390;7.494;2022-08-19T02:05:24;22.33;;;19.73;;
5077;SDS011;2557;51.390;7.494;2022-08-19T02:07:50;23.50;;;19.90;;
5077;SDS011;2557;51.390;7.494;2022-08-19T02:10:18;22.30;;;18.80;;
5077;SDS011;2557;51.390;7.494;2022-08-19T02:12:44;21.47;;;19.23;;
5077;SDS011;2557;51.390;7.494;2022-08-19T02:15:10;21.33;;;19.23;;
5077;SDS011;2557;51.390;7.494;2022-08-19T02:17:37;21.60;;;19.40;;
5077;SDS011;2557;51.390;7.494;2022-08-19T02:20:04;24.50;;;19.57;;
5077;SDS011;2557;51.390;7.494;2022-08-19T02:22:31;24.23;;;19.13;;
5077;SDS011;2557;51.390;7.494;2022-08-19T02:24:57;20.57;;;18.47;;
5077;SDS011;2557;51.390;7.494;2022-08-19T02:27:23;21.77;;;19.53;;
5077;SDS011;2557;51.390;7.494;2022-08-19T02:29:49;22.33;;;19.73;;
5077;SDS011;2557;51.390;7.494;2022-08-19T02:32:16;22.03;;;19.50;;
5077;SDS011;2557;51.390;7.494;2022-08-19T02:34:44;22.40;;;20.00;;
5077;SDS011;2557;51.390;7.494;2022-08-19T02:37:10;23.17;;;20.00;;
5077;SDS011;2557;51.390;7.494;2022-08-19T02:39:57;21.50;;;19.40;;
5077;SDS011;2557;51.390;7.494;2022-08-19T02:42:23;22.03;;;19.73;;
5077;SDS011;2557;51.390;7.494;2022-08-19T02:44:49;21.77;;;19.30;;
5077;SDS011;2557;51.390;7.494;2022-08-19T02:47:15;22.63;;;19.20;;
5077;SDS011;2557;51.390;7.494;2022-08-19T02:49:41;23.50;;;21.00;;
5077;SDS011;2557;51.390;7.494;2022-08-19T02:52:07;21.10;;;18.87;;
5077;SDS011;2557;51.390;7.494;2022-08-19T02:54:33;21.87;;;19.53;;
5077;SDS011;2557;51.390;7.494;2022-08-19T02:56:59;22.97;;;20.43;;
5077;SDS011;2557;51.390;7.494;2022-08-19T02:59:25;20.33;;;18.20;;
5077;SDS011;2557;51.390;7.494;2022-08-19T03:01:51;25.07;;;20.60;;
5077;SDS011;2557;51.390;7.494;2022-08-19T03:04:17;21.80;;;18.93;;
5077;SDS011;2557;51.390;7.494;2022-08-19T03:06:45;23.77;;;20.27;;
5077;SDS011;2557;51.390;7.494;2022-08-19T03:09:12;21.30;;;19.07;;
5077;SDS011;2557;51.390;7.494;2022-08-19T03:11:38;22.23;;;19.83;;
5077;SDS011;2557;51.390;7.494;2022-08-19T03:14:05;21.73;;;19.33;;
5077;SDS011;2557;51.390;7.494;2022-08-19T03:16:32;21.37;;;19.07;;
5077;SDS011;2557;51.390;7.494;2022-08-19T03:18:59;20.60;;;18.40;;
5077;SDS011;2557;51.390;7.494;2022-08-19T03:21:26;22.73;;;18.83;;
5077;SDS011;2557;51.390;7.494;2022-08-19T03:23:56;21.43;;;19.23;;
5077;SDS011;2557;51.390;7.494;2022-08-19T03:26:22;21.07;;;18.87;;
5077;SDS011;2557;51.390;7.494;2022-08-19T03:28:48;22.23;;;19.73;;
5077;SDS011;2557;51.390;7.494;2022-08-19T03:31:15;26.70;;;21.03;;
5077;SDS011;2557;51.390;7.494;2022-08-19T03:33:41;22.00;;;18.70;;
5077;SDS011;2557;51.390;7.494;2022-08-19T03:36:12;22.80;;;20.40;;
5077;SDS011;2557;51.390;7.494;2022-08-19T03:38:41;21.60;;;19.17;;
5077;SDS011;2557;51.390;7.494;2022-08-19T03:41:09;23.33;;;20.53;;
5077;SDS011;2557;51.390;7.494;2022-08-19T03:43:36;22.70;;;19.17;;
5077;SDS011;2557;51.390;7.494;2022-08-19T03:46:06;21.20;;;18.90;;
5077;SDS011;2557;51.390;7.494;2022-08-19T03:48:33;20.60;;;18.40;;
5077;SDS011;2557;51.390;7.494;2022-08-19T03:50:59;21.00;;;18.80;;
5077;SDS011;2557;51.390;7.494;2022-08-19T03:53:26;23.27;;;19.53;;
5077;SDS011;2557;51.390;7.494;2022-08-19T03:55:52;24.30;;;20.30;;
5077;SDS011;2557;51.390;7.494;2022-08-19T03:58:19;21.27;;;19.03;;
5077;SDS011;2557;51.390;7.494;2022-08-19T04:00:45;22.50;;;20.20;;
5077;SDS011;2557;51.390;7.494;2022-08-19T04:03:11;22.33;;;18.23;;
5077;SDS011;2557;51.390;7.494;2022-08-19T04:05:37;19.83;;;17.70;;
5077;SDS011;2557;51.390;7.494;2022-08-19T04:08:03;25.43;;;19.10;;
5077;SDS011;2557;51.390;7.494;2022-08-19T04:10:30;20.63;;;18.03;;
5077;SDS011;2557;51.390;7.494;2022-08-19T04:12:56;19.17;;;17.20;;
5077;SDS011;2557;51.390;7.494;2022-08-19T04:15:22;22.10;;;18.40;;
5077;SDS011;2557;51.390;7.494;2022-08-19T04:17:48;20.50;;;18.33;;
5077;SDS011;2557;51.390;7.494;2022-08-19T04:20:14;22.50;;;19.10;;
5077;SDS011;2557;51.390;7.494;2022-08-19T04:22:40;21.27;;;18.97;;
5077;SDS011;2557;51.390;7.494;2022-08-19T04:25:06;21.93;;;18.73;;
5077;SDS011;2557;51.390;7.494;2022-08-19T04:27:32;22.23;;;17.87;;
5077;SDS011;2557;51.390;7.494;2022-08-19T04:29:59;19.77;;;17.67;;
5077;SDS011;2557;51.390;7.494;2022-08-19T04:32:24;21.33;;;19.07;;
5077;SDS011;2557;51.390;7.494;2022-08-19T04:34:51;22.50;;;19.20;;
5077;SDS011;2557;51.390;7.494;2022-08-19T04:37:17;21.60;;;19.27;;
5077;SDS011;2557;51.390;7.494;2022-08-19T04:39:43;20.80;;;18.20;;
5077;SDS011;2557;51.390;7.494;2022-08-19T04:42:27;23.37;;;19.00;;
5077;SDS011;2557;51.390;7.494;2022-08-19T04:45:12;19.63;;;17.50;;
5077;SDS011;2557;51.390;7.494;2022-08-19T04:47:40;21.47;;;18.07;;
5077;SDS011;2557;51.390;7.494;2022-08-19T04:50:07;20.53;;;17.80;;
5077;SDS011;2557;51.390;7.494;2022-08-19T04:52:36;21.83;;;18.90;;
5077;SDS011;2557;51.390;7.494;2022-08-19T04:55:07;19.57;;;17.47;;
5077;SDS011;2557;51.390;7.494;2022-08-19T04:57:33;20.10;;;17.80;;
5077;SDS011;2557;51.390;7.494;2022-08-19T04:59:59;19.47;;;17.57;;
5077;SDS011;2557;51.390;7.494;2022-08-19T05:02:25;19.63;;;17.30;;
5077;SDS011;2557;51.390;7.494;2022-08-19T05:04:56;22.13;;;17.93;;
5077;SDS011;2557;51.390;7.494;2022-08-19T05:07:22;22.00;;;17.30;;
5077;SDS011;2557;51.390;7.494;2022-08-19T05:09:48;21.27;;;17.00;;
5077;SDS011;2557;51.390;7.494;2022-08-19T05:12:14;18.90;;;17.00;;
5077;SDS011;2557;51.390;7.494;2022-08-19T05:14:40;18.47;;;16.57;;
5077;SDS011;2557;51.390;7.494;2022-08-19T05:17:06;21.13;;;17.20;;
5077;SDS011;2557;51.390;7.494;2022-08-19T05:19:32;25.83;;;19.10;;
5077;SDS011;2557;51.390;7.494;2022-08-19T05:22:17;21.17;;;18.00;;
5077;SDS011;2557;51.390;7.494;2022-08-19T05:25:01;18.37;;;16.43;;
5077;SDS011;2557;51.390;7.494;2022-08-19T05:27:27;29.00;;;19.23;;
5077;SDS011;2557;51.390;7.494;2022-08-19T05:29:53;26.93;;;19.50;;
5077;SDS011;2557;51.390;7.494;2022-08-19T05:32:19;20.23;;;18.23;;
5077;SDS011;2557;51.390;7.494;2022-08-19T05:34:46;19.57;;;17.23;;
5077;SDS011;2557;51.390;7.494;2022-08-19T05:37:12;21.57;;;18.73;;
5077;SDS011;2557;51.390;7.494;2022-08-19T05:39:38;26.80;;;17.73;;
5077;SDS011;2557;51.390;7.494;2022-08-19T05:42:07;21.53;;;18.87;;
5077;SDS011;2557;51.390;7.494;2022-08-19T05:44:35;22.50;;;20.10;;
5077;SDS011;2557;51.390;7.494;2022-08-19T05:47:02;20.00;;;17.93;;
5077;SDS011;2557;51.390;7.494;2022-08-19T05:49:29;20.17;;;18.03;;
5077;SDS011;2557;51.390;7.494;2022-08-19T05:51:56;21.53;;;17.60;;
5077;SDS011;2557;51.390;7.494;2022-08-19T05:54:24;21.03;;;18.27;;
5077;SDS011;2557;51.390;7.494;2022-08-19T05:56:51;24.37;;;18.87;;
5077;SDS011;2557;51.390;7.494;2022-08-19T05:59:18;22.87;;;20.47;;
5077;SDS011;2557;51.390;7.494;2022-08-19T06:01:46;23.37;;;19.53;;
5077;SDS011;2557;51.390;7.494;2022-08-19T06:04:15;22.67;;;19.23;;
5077;SDS011;2557;51.390;7.494;2022-08-19T06:06:43;27.23;;;19.53;;
5077;SDS011;2557;51.390;7.494;2022-08-19T06:09:10;26.67;;;20.20;;
5077;SDS011;2557;51.390;7.494;2022-08-19T06:11:41;22.80;;;20.27;;
5077;SDS011;2557;51.390;7.494;2022-08-19T06:14:11;24.23;;;19.07;;
5077;SDS011;2557;51.390;7.494;2022-08-19T06:16:38;23.70;;;19.17;;
5077;SDS011;2557;51.390;7.494;2022-08-19T06:19:05;26.60;;;19.47;;
5077;SDS011;2557;51.390;7.494;2022-08-19T06:21:32;30.40;;;19.37;;
5077;SDS011;2557;51.390;7.494;2022-08-19T06:23:58;22.90;;;19.73;;
5077;SDS011;2557;51.390;7.494;2022-08-19T06:26:25;22.47;;;20.17;;
5077;SDS011;2557;51.390;7.494;2022-08-19T06:28:51;21.60;;;19.03;;
5077;SDS011;2557;51.390;7.494;2022-08-19T06:31:19;23.13;;;18.53;;
5077;SDS011;2557;51.390;7.494;2022-08-19T06:33:46;24.40;;;19.73;;
5077;SDS011;2557;51.390;7.494;2022-08-19T06:36:16;24.27;;;20.03;;
5077;SDS011;2557;51.390;7.494;2022-08-19T06:38:42;22.83;;;18.87;;
5077;SDS011;2557;51.390;7.494;2022-08-19T06:41:08;23.43;;;19.93;;
5077;SDS011;2557;51.390;7.494;2022-08-19T06:43:35;21.73;;;19.50;;
5077;SDS011;2557;51.390;7.494;2022-08-19T06:46:01;23.97;;;18.10;;
5077;SDS011;2557;51.390;7.494;2022-08-19T06:48:28;30.60;;;21.30;;
5077;SDS011;2557;51.390;7.494;2022-08-19T06:50:54;23.00;;;19.07;;
5077;SDS011;2557;51.390;7.494;2022-08-19T06:53:21;30.20;;;21.33;;
5077;SDS011;2557;51.390;7.494;2022-08-19T06:55:47;23.90;;;20.70;;
5077;SDS011;2557;51.390;7.494;2022-08-19T06:58:13;24.63;;;20.83;;
5077;SDS011;2557;51.390;7.494;2022-08-19T07:00:39;20.63;;;17.90;;
5077;SDS011;2557;51.390;7.494;2022-08-19T07:03:05;17.23;;;15.43;;
5077;SDS011;2557;51.390;7.494;2022-08-19T07:05:32;29.00;;;17.83;;
5077;SDS011;2557;51.390;7.494;2022-08-19T07:07:58;20.40;;;14.60;;
5077;SDS011;2557;51.390;7.494;2022-08-19T07:10:24;19.50;;;15.43;;
5077;SDS011;2557;51.390;7.494;2022-08-19T07:12:50;17.10;;;15.30;;
5077;SDS011;2557;51.390;7.494;2022-08-19T07:15:16;17.60;;;15.77;;
5077;SDS011;2557;51.390;7.494;2022-08-19T07:17:42;21.30;;;18.20;;
5077;SDS011;2557;51.390;7.494;2022-08-19T07:20:09;15.47;;;13.87;;
5077;SDS011;2557;51.390;7.494;2022-08-19T07:22:39;22.27;;;16.67;;
5077;SDS011;2557;51.390;7.494;2022-08-19T07:25:06;15.80;;;14.20;;
5077;SDS011;2557;51.390;7.494;2022-08-19T07:27:32;20.67;;;17.20;;
5077;SDS011;2557;51.390;7.494;2022-08-19T07:29:59;14.47;;;13.10;;
5077;SDS011;2557;51.390;7.494;2022-08-19T07:32:25;14.93;;;13.53;;
5077;SDS011;2557;51.390;7.494;2022-08-19T07:34:51;22.80;;;18.03;;
5077;SDS011;2557;51.390;7.494;2022-08-19T07:37:17;17.90;;;13.73;;
5077;SDS011;2557;51.390;7.494;2022-08-19T07:39:43;22.90;;;17.83;;
5077;SDS011;2557;51.390;7.494;2022-08-19T07:42:10;20.33;;;15.70;;
5077;SDS011;2557;51.390;7.494;2022-08-19T07:44:36;23.43;;;15.23;;
5077;SDS011;2557;51.390;7.494;2022-08-19T07:47:04;14.07;;;12.50;;
5077;SDS011;2557;51.390;7.494;2022-08-19T07:49:30;14.13;;;12.73;;
5077;SDS011;2557;51.390;7.494;2022-08-19T07:51:58;22.63;;;17.27;;
5077;SDS011;2557;51.390;7.494;2022-08-19T07:54:26;22.90;;;17.80;;
5077;SDS011;2557;51.390;7.494;2022-08-19T07:56:52;30.57;;;19.30;;
5077;SDS011;2557;51.390;7.494;2022-08-19T07:59:19;22.23;;;17.23;;
5077;SDS011;2557;51.390;7.494;2022-08-19T08:01:45;19.07;;;17.07;;
5077;SDS011;2557;51.390;7.494;2022-08-19T08:04:12;18.60;;;14.43;;
5077;SDS011;2557;51.390;7.494;2022-08-19T08:06:57;31.37;;;18.17;;
5077;SDS011;2557;51.390;7.494;2022-08-19T08:09:43;23.80;;;17.13;;
5077;SDS011;2557;51.390;7.494;2022-08-19T08:12:10;18.47;;;14.40;;
5077;SDS011;2557;51.390;7.494;2022-08-19T08:14:59;16.83;;;13.37;;
5077;SDS011;2557;51.390;7.494;2022-08-19T08:17:25;18.10;;;13.70;;
5077;SDS011;2557;51.390;7.494;2022-08-19T08:19:51;19.03;;;14.17;;
5077;SDS011;2557;51.390;7.494;2022-08-19T08:22:18;20.63;;;15.20;;
5077;SDS011;2557;51.390;7.494;2022-08-19T08:25:12;19.60;;;14.50;;
5077;SDS011;2557;51.390;7.494;2022-08-19T08:27:38;16.17;;;13.40;;
5077;SDS011;2557;51.390;7.494;2022-08-19T08:30:09;15.53;;;13.90;;
5077;SDS011;2557;51.390;7.494;2022-08-19T08:32:36;20.80;;;13.27;;
5077;SDS011;2557;51.390;7.494;2022-08-19T08:35:03;15.83;;;11.73;;
5077;SDS011;2557;51.390;7.494;2022-08-19T08:37:29;16.17;;;14.47;;
5077;SDS011;2557;51.390;7.494;2022-08-19T08:39:55;19.40;;;13.23;;
5077;SDS011;2557;51.390;7.494;2022-08-19T08:42:29;13.77;;;12.37;;
5077;SDS011;2557;51.390;7.494;2022-08-19T08:44:59;14.40;;;12.20;;
5077;SDS011;2557;51.390;7.494;2022-08-19T08:47:26;13.30;;;11.90;;
5077;SDS011;2557;51.390;7.494;2022-08-19T08:49:59;18.03;;;13.93;;
5077;SDS011;2557;51.390;7.494;2022-08-19T08:52:27;20.93;;;12.93;;
5077;SDS011;2557;51.390;7.494;2022-08-19T08:54:54;16.23;;;12.40;;
5077;SDS011;2557;51.390;7.494;2022-08-19T08:58:14;15.43;;;12.13;;
5077;SDS011;2557;51.390;7.494;2022-08-19T09:00:09;17.37;;;13.63;;
5077;SDS011;2557;51.390;7.494;2022-08-19T09:02:36;16.33;;;14.67;;
5077;SDS011;2557;51.390;7.494;2022-08-19T09:05:02;19.70;;;15.70;;
5077;SDS011;2557;51.390;7.494;2022-08-19T09:07:45;12.93;;;11.63;;
5077;SDS011;2557;51.390;7.494;2022-08-19T09:10:34;13.50;;;12.27;;
5077;SDS011;2557;51.390;7.494;2022-08-19T09:15:30;13.30;;;10.80;;
5077;SDS011;2557;51.390;7.494;2022-08-19T09:18:03;13.60;;;11.60;;
5077;SDS011;2557;51.390;7.494;2022-08-19T09:20:30;15.60;;;11.63;;
5077;SDS011;2557;51.390;7.494;2022-08-19T09:22:56;12.27;;;11.07;;
5077;SDS011;2557;51.390;7.494;2022-08-19T09:25:23;9.40;;;8.40;;
5077;SDS011;2557;51.390;7.494;2022-08-19T09:27:50;14.73;;;12.67;;
5077;SDS011;2557;51.390;7.494;2022-08-19T09:30:23;11.90;;;10.80;;
5077;SDS011;2557;51.390;7.494;2022-08-19T09:32:50;9.47;;;8.57;;
5077;SDS011;2557;51.390;7.494;2022-08-19T09:35:20;11.40;;;10.17;;
5077;SDS011;2557;51.390;7.494;2022-08-19T09:37:47;12.17;;;10.13;;
5077;SDS011;2557;51.390;7.494;2022-08-19T09:40:14;11.30;;;9.57;;
5077;SDS011;2557;51.390;7.494;2022-08-19T09:42:40;19.17;;;8.27;;
5077;SDS011;2557;51.390;7.494;2022-08-19T09:45:08;11.70;;;10.53;;
5077;SDS011;2557;51.390;7.494;2022-08-19T09:47:34;9.43;;;8.63;;
5077;SDS011;2557;51.390;7.494;2022-08-19T09:50:03;14.27;;;13.07;;
5077;SDS011;2557;51.390;7.494;2022-08-19T09:52:30;14.17;;;12.97;;
5077;SDS011;2557;51.390;7.494;2022-08-19T09:54:56;15.03;;;13.20;;
5077;SDS011;2557;51.390;7.494;2022-08-19T09:57:22;11.43;;;10.23;;
5077;SDS011;2557;51.390;7.494;2022-08-19T09:59:48;13.07;;;11.63;;
5077;SDS011;2557;51.390;7.494;2022-08-19T10:02:14;11.80;;;10.80;;
5077;SDS011;2557;51.390;7.494;2022-08-19T10:04:40;13.60;;;10.83;;
5077;SDS011;2557;51.390;7.494;2022-08-19T10:07:25;12.00;;;10.87;;
5077;SDS011;2557;51.390;7.494;2022-08-19T10:09:51;14.20;;;12.83;;
5077;SDS011;2557;51.390;7.494;2022-08-19T10:12:17;11.20;;;10.23;;
5077;SDS011;2557;51.390;7.494;2022-08-19T10:14:43;13.53;;;12.23;;
5077;SDS011;2557;51.390;7.494;2022-08-19T10:17:09;14.83;;;13.43;;
5077;SDS011;2557;51.390;7.494;2022-08-19T10:19:35;15.40;;;14.00;;
5077;SDS011;2557;51.390;7.494;2022-08-19T10:22:04;13.27;;;12.07;;
5077;SDS011;2557;51.390;7.494;2022-08-19T10:24:31;10.93;;;10.07;;
5077;SDS011;2557;51.390;7.494;2022-08-19T10:26:58;13.57;;;12.37;;
5077;SDS011;2557;51.390;7.494;2022-08-19T10:29:24;18.07;;;16.30;;
5077;SDS011;2557;51.390;7.494;2022-08-19T10:31:53;12.63;;;10.77;;
5077;SDS011;2557;51.390;7.494;2022-08-19T10:34:19;17.37;;;15.77;;
5077;SDS011;2557;51.390;7.494;2022-08-19T10:36:45;15.60;;;14.00;;
5077;SDS011;2557;51.390;7.494;2022-08-19T10:39:11;12.80;;;11.70;;
5077;SDS011;2557;51.390;7.494;2022-08-19T10:41:38;17.00;;;15.30;;
5077;SDS011;2557;51.390;7.494;2022-08-19T10:44:08;17.23;;;15.73;;
5077;SDS011;2557;51.390;7.494;2022-08-19T10:46:36;20.33;;;18.50;;
5077;SDS011;2557;51.390;7.494;2022-08-19T10:49:04;16.50;;;14.90;;
5077;SDS011;2557;51.390;7.494;2022-08-19T10:51:30;20.77;;;18.77;;
5077;SDS011;2557;51.390;7.494;2022-08-19T10:54:15;16.80;;;15.30;;
5077;SDS011;2557;51.390;7.494;2022-08-19T10:56:41;19.93;;;18.10;;
5077;SDS011;2557;51.390;7.494;2022-08-19T10:59:17;18.33;;;16.47;;
5077;SDS011;2557;51.390;7.494;2022-08-19T11:01:45;19.87;;;17.80;;
5077;SDS011;2557;51.390;7.494;2022-08-19T11:04:11;16.87;;;15.33;;
5077;SDS011;2557;51.390;7.494;2022-08-19T11:06:39;15.13;;;13.70;;
5077;SDS011;2557;51.390;7.494;2022-08-19T11:09:06;16.13;;;14.40;;
5077;SDS011;2557;51.390;7.494;2022-08-19T11:11:32;13.23;;;12.03;;
5077;SDS011;2557;51.390;7.494;2022-08-19T11:14:04;15.17;;;13.57;;
5077;SDS011;2557;51.390;7.494;2022-08-19T11:16:30;12.53;;;11.43;;
5077;SDS011;2557;51.390;7.494;2022-08-19T11:18:58;11.20;;;10.10;;
5077;SDS011;2557;51.390;7.494;2022-08-19T11:21:28;10.97;;;10.10;;
5077;SDS011;2557;51.390;7.494;2022-08-19T11:24:00;11.50;;;9.63;;
5077;SDS011;2557;51.390;7.494;2022-08-19T11:26:27;9.03;;;8.33;;
5077;SDS011;2557;51.390;7.494;2022-08-19T11:28:53;9.77;;;8.97;;
5077;SDS011;2557;51.390;7.494;2022-08-19T11:31:21;10.07;;;8.93;;
5077;SDS011;2557;51.390;7.494;2022-08-19T11:33:47;11.20;;;10.10;;
5077;SDS011;2557;51.390;7.494;2022-08-19T11:36:18;9.20;;;8.57;;
5077;SDS011;2557;51.390;7.494;2022-08-19T11:38:45;9.80;;;9.00;;
5077;SDS011;2557;51.390;7.494;2022-08-19T11:41:13;10.37;;;9.60;;
5077;SDS011;2557;51.390;7.494;2022-08-19T11:43:40;9.70;;;8.90;;
5077;SDS011;2557;51.390;7.494;2022-08-19T11:46:06;8.80;;;8.20;;
5077;SDS011;2557;51.390;7.494;2022-08-19T11:48:33;7.83;;;7.13;;
5077;SDS011;2557;51.390;7.494;2022-08-19T11:50:59;8.30;;;7.53;;
5077;SDS011;2557;51.390;7.494;2022-08-19T11:53:30;6.50;;;6.10;;
5077;SDS011;2557;51.390;7.494;2022-08-19T11:55:56;7.27;;;6.67;;
5077;SDS011;2557;51.390;7.494;2022-08-19T11:58:22;6.80;;;6.13;;
5077;SDS011;2557;51.390;7.494;2022-08-19T12:00:48;6.67;;;6.07;;
5077;SDS011;2557;51.390;7.494;2022-08-19T12:03:14;5.33;;;4.83;;
5077;SDS011;2557;51.390;7.494;2022-08-19T12:05:40;5.63;;;5.20;;
5077;SDS011;2557;51.390;7.494;2022-08-19T12:08:06;5.80;;;5.40;;
5077;SDS011;2557;51.390;7.494;2022-08-19T12:10:33;5.27;;;4.97;;
5077;SDS011;2557;51.390;7.494;2022-08-19T12:12:59;6.30;;;5.40;;
5077;SDS011;2557;51.390;7.494;2022-08-19T12:15:25;7.05;;;6.55;;
5077;SDS011;2557;51.390;7.494;2022-08-19T12:17:52;7.53;;;6.33;;
5077;SDS011;2557;51.390;7.494;2022-08-19T12:20:21;11.63;;;7.30;;
5077;SDS011;2557;51.390;7.494;2022-08-19T12:22:47;7.57;;;6.83;;
5077;SDS011;2557;51.390;7.494;2022-08-19T12:25:14;6.90;;;6.40;;
5077;SDS011;2557;51.390;7.494;2022-08-19T12:27:40;10.63;;;8.43;;
5077;SDS011;2557;51.390;7.494;2022-08-19T12:30:06;7.97;;;7.33;;
5077;SDS011;2557;51.390;7.494;2022-08-19T12:32:33;8.37;;;7.60;;
5077;SDS011;2557;51.390;7.494;2022-08-19T12:34:59;11.40;;;9.17;;
5077;SDS011;2557;51.390;7.494;2022-08-19T12:37:25;10.33;;;8.87;;
5077;SDS011;2557;51.390;7.494;2022-08-19T12:39:52;7.97;;;7.33;;
5077;SDS011;2557;51.390;7.494;2022-08-19T12:42:18;8.80;;;8.20;;
5077;SDS011;2557;51.390;7.494;2022-08-19T12:44:44;9.67;;;7.33;;
5077;SDS011;2557;51.390;7.494;2022-08-19T12:47:11;8.77;;;7.83;;
5077;SDS011;2557;51.390;7.494;2022-08-19T12:49:38;8.70;;;7.90;;
5077;SDS011;2557;51.390;7.494;2022-08-19T12:52:05;7.63;;;7.03;;
5077;SDS011;2557;51.390;7.494;2022-08-19T12:54:32;8.07;;;7.27;;
5077;SDS011;2557;51.390;7.494;2022-08-19T12:56:58;7.67;;;6.97;;
5077;SDS011;2557;51.390;7.494;2022-08-19T12:59:24;8.80;;;8.00;;
5077;SDS011;2557;51.390;7.494;2022-08-19T13:01:50;9.60;;;8.73;;
5077;SDS011;2557;51.390;7.494;2022-08-19T13:04:17;8.77;;;8.07;;
5077;SDS011;2557;51.390;7.494;2022-08-19T13:06:43;8.27;;;7.67;;
5077;SDS011;2557;51.390;7.494;2022-08-19T13:09:09;8.23;;;7.73;;
5077;SDS011;2557;51.390;7.494;2022-08-19T13:11:36;7.70;;;7.10;;
5077;SDS011;2557;51.390;7.494;2022-08-19T13:14:02;8.53;;;7.93;;
5077;SDS011;2557;51.390;7.494;2022-08-19T13:16:29;10.67;;;9.77;;
5077;SDS011;2557;51.390;7.494;2022-08-19T13:18:55;9.07;;;8.33;;
5077;SDS011;2557;51.390;7.494;2022-08-19T13:21:23;10.17;;;9.33;;
5077;SDS011;2557;51.390;7.494;2022-08-19T13:23:49;10.53;;;9.80;;
5077;SDS011;2557;51.390;7.494;2022-08-19T13:26:16;10.23;;;9.30;;
5077;SDS011;2557;51.390;7.494;2022-08-19T13:28:42;11.07;;;10.07;;
5077;SDS011;2557;51.390;7.494;2022-08-19T13:31:28;11.13;;;10.23;;
5077;SDS011;2557;51.390;7.494;2022-08-19T13:34:14;9.53;;;8.83;;
5077;SDS011;2557;51.390;7.494;2022-08-19T13:36:40;8.40;;;7.60;;
5077;SDS011;2557;51.390;7.494;2022-08-19T13:39:06;9.43;;;8.53;;
5077;SDS011;2557;51.390;7.494;2022-08-19T13:41:34;11.83;;;8.60;;
5077;SDS011;2557;51.390;7.494;2022-08-19T13:44:00;8.90;;;8.20;;
5077;SDS011;2557;51.390;7.494;2022-08-19T13:46:26;9.30;;;8.60;;
5077;SDS011;2557;51.390;7.494;2022-08-19T13:48:54;8.57;;;7.87;;
5077;SDS011;2557;51.390;7.494;2022-08-19T13:51:21;7.57;;;7.03;;
5077;SDS011;2557;51.390;7.494;2022-08-19T13:53:47;8.37;;;7.70;;
5077;SDS011;2557;51.390;7.494;2022-08-19T13:56:14;8.67;;;7.87;;
5077;SDS011;2557;51.390;7.494;2022-08-19T13:58:40;8.47;;;7.80;;
5077;SDS011;2557;51.390;7.494;2022-08-19T14:01:06;8.20;;;7.50;;
5077;SDS011;2557;51.390;7.494;2022-08-19T14:03:32;11.43;;;7.30;;
5077;SDS011;2557;51.390;7.494;2022-08-19T14:05:59;7.67;;;6.97;;
5077;SDS011;2557;51.390;7.494;2022-08-19T14:08:25;7.90;;;7.20;;
5077;SDS011;2557;51.390;7.494;2022-08-19T14:10:53;10.43;;;7.93;;
5077;SDS011;2557;51.390;7.494;2022-08-19T14:13:19;8.87;;;8.17;;
5077;SDS011;2557;51.390;7.494;2022-08-19T14:15:46;9.10;;;8.17;;
5077;SDS011;2557;51.390;7.494;2022-08-19T14:18:13;8.57;;;7.70;;
5077;SDS011;2557;51.390;7.494;2022-08-19T14:20:39;7.50;;;6.80;;
5077;SDS011;2557;51.390;7.494;2022-08-19T14:23:05;7.90;;;7.23;;
5077;SDS011;2557;51.390;7.494;2022-08-19T14:25:32;7.90;;;5.90;;
5077;SDS011;2557;51.390;7.494;2022-08-19T14:27:59;7.43;;;6.80;;
5077;SDS011;2557;51.390;7.494;2022-08-19T14:30:26;7.83;;;7.13;;
5077;SDS011;2557;51.390;7.494;2022-08-19T14:32:53;7.87;;;7.17;;
5077;SDS011;2557;51.390;7.494;2022-08-19T14:35:20;7.90;;;7.40;;
5077;SDS011;2557;51.390;7.494;2022-08-19T14:37:47;9.37;;;8.33;;
5077;SDS011;2557;51.390;7.494;2022-08-19T14:40:14;8.30;;;7.60;;
5077;SDS011;2557;51.390;7.494;2022-08-19T14:42:41;7.87;;;7.17;;
5077;SDS011;2557;51.390;7.494;2022-08-19T14:45:07;9.77;;;7.97;;
5077;SDS011;2557;51.390;7.494;2022-08-19T14:47:34;10.23;;;7.83;;
5077;SDS011;2557;51.390;7.494;2022-08-19T14:50:00;8.83;;;8.00;;
5077;SDS011;2557;51.390;7.494;2022-08-19T14:52:26;9.00;;;8.23;;
5077;SDS011;2557;51.390;7.494;2022-08-19T14:54:52;8.67;;;7.87;;
5077;SDS011;2557;51.390;7.494;2022-08-19T14:57:18;12.30;;;7.90;;